Time;durP1;ratioP1;P1;durP2;ratioP2;P2;SDS_P1;SDS_P2;PMS_P1;PMS_P2;Temp;Humidity;BMP_temperature;BMP_pressure;BME280_temperature;BME280_humidity;BME280_pressure;Samples;Min_cycle;Max_cycle;Signal;HPM_P1;HPM_P2
2021/06/03 00:00:20;;;;;;;11.13;6.43;;;;;;;;;;5052737;28;20075;-74
2021/06/03 00:02:50;;;;;;;9.45;5.90;;;;;;;;;;5034819;28;20116;-73
2021/06/03 00:05:19;;;;;;;10.60;6.80;;;;;;;;;;5054416;28;20480;-73
2021/06/03 00:07:45;;;;;;;10.70;6.80;;;;;;;;;;5038453;28;20032;-72
2021/06/03 00:10:12;;;;;;;9.27;6.10;;;;;;;;;;5056844;28;20096;-72
2021/06/03 00:12:38;;;;;;;13.32;7.28;;;;;;;;;;5056318;28;20435;-72
2021/06/03 00:15:07;;;;;;;13.70;7.22;;;;;;;;;;5056819;28;20086;-73
2021/06/03 00:17:33;;;;;;;10.48;6.43;;;;;;;;;;5056204;28;20552;-72
2021/06/03 00:19:59;;;;;;;10.77;6.03;;;;;;;;;;5056158;28;20082;-72
2021/06/03 00:22:26;;;;;;;12.10;5.78;;;;;;;;;;5056417;28;20116;-72
2021/06/03 00:24:52;;;;;;;14.55;6.65;;;;;;;;;;5055920;28;20148;-73
2021/06/03 00:27:19;;;;;;;10.07;5.80;;;;;;;;;;5056075;28;20033;-72
2021/06/03 00:29:47;;;;;;;9.95;5.70;;;;;;;;;;5038395;28;20433;-72
2021/06/03 00:32:13;;;;;;;12.90;5.55;;;;;;;;;;5056194;28;20043;-72
2021/06/03 00:34:39;;;;;;;7.20;5.35;;;;;;;;;;5038197;28;20021;-72
2021/06/03 00:37:05;;;;;;;11.98;5.40;;;;;;;;;;5056150;28;20035;-72
2021/06/03 00:39:32;;;;;;;7.65;5.13;;;;;;;;;;5037853;28;20029;-72
2021/06/03 00:41:58;;;;;;;7.32;5.40;;;;;;;;;;5056059;28;20047;-72
2021/06/03 00:44:24;;;;;;;9.18;4.80;;;;;;;;;;5055977;28;20525;-72
2021/06/03 00:46:50;;;;;;;11.18;5.07;;;;;;;;;;5055749;28;20577;-72
2021/06/03 00:49:16;;;;;;;6.15;4.85;;;;;;;;;;5037781;28;20068;-72
2021/06/03 00:51:43;;;;;;;9.05;5.18;;;;;;;;;;5055875;28;20036;-72
2021/06/03 00:54:09;;;;;;;13.30;4.93;;;;;;;;;;5055839;28;20018;-72
2021/06/03 00:56:37;;;;;;;7.20;4.93;;;;;;;;;;5055645;28;20103;-73
2021/06/03 00:59:06;;;;;;;9.57;4.97;;;;;;;;;;5055736;28;20480;-72
2021/06/03 01:01:33;;;;;;;6.75;4.82;;;;;;;;;;5037763;28;20029;-72
2021/06/03 01:03:59;;;;;;;6.68;4.80;;;;;;;;;;5055607;28;20013;-72
2021/06/03 01:06:26;;;;;;;7.57;4.80;;;;;;;;;;5037606;28;20029;-71
2021/06/03 01:09:13;;;;;;;9.43;5.10;;;;;;;;;;5055635;28;20056;-71
2021/06/03 01:11:43;;;;;;;10.05;5.43;;;;;;;;;;5055526;28;20018;-73
2021/06/03 01:14:15;;;;;;;7.68;5.10;;;;;;;;;;5037501;28;20022;-72
2021/06/03 01:16:41;;;;;;;7.22;4.63;;;;;;;;;;5036458;28;20025;-71
2021/06/03 01:19:09;;;;;;;7.53;4.75;;;;;;;;;;5055422;28;20021;-72
2021/06/03 01:21:41;;;;;;;9.98;5.35;;;;;;;;;;5037407;28;20079;-72
2021/06/03 01:24:14;;;;;;;7.70;5.15;;;;;;;;;;5033865;28;20450;-71
2021/06/03 01:26:40;;;;;;;8.57;4.88;;;;;;;;;;5033978;28;20099;-72
2021/06/03 01:29:06;;;;;;;10.15;4.50;;;;;;;;;;5035527;28;20048;-71
2021/06/03 01:31:33;;;;;;;11.63;4.72;;;;;;;;;;5035180;28;20116;-71
2021/06/03 01:33:59;;;;;;;12.35;5.47;;;;;;;;;;5035171;28;20535;-72
2021/06/03 01:36:26;;;;;;;10.65;5.28;;;;;;;;;;5035044;28;20116;-69
2021/06/03 01:38:52;;;;;;;9.50;4.93;;;;;;;;;;5035074;28;20037;-70
2021/06/03 01:41:19;;;;;;;9.82;4.70;;;;;;;;;;5035044;28;20109;-71
2021/06/03 01:43:46;;;;;;;8.70;5.72;;;;;;;;;;5034959;28;20021;-71
2021/06/03 01:46:13;;;;;;;13.73;5.35;;;;;;;;;;5033651;28;20029;-70
2021/06/03 01:48:40;;;;;;;9.32;4.82;;;;;;;;;;5033613;28;20065;-71
2021/06/03 01:51:08;;;;;;;12.13;5.07;;;;;;;;;;5034817;28;20163;-70
2021/06/03 01:53:34;;;;;;;13.10;5.82;;;;;;;;;;5033164;28;20078;-71
2021/06/03 01:56:05;;;;;;;12.63;6.10;;;;;;;;;;5034636;28;20040;-70
2021/06/03 01:58:32;;;;;;;11.75;5.30;;;;;;;;;;5033370;28;20116;-71
2021/06/03 02:00:59;;;;;;;9.35;5.70;;;;;;;;;;5034674;28;20116;-71
2021/06/03 02:03:26;;;;;;;11.55;6.50;;;;;;;;;;5034596;28;20033;-71
2021/06/03 02:05:55;;;;;;;9.05;5.82;;;;;;;;;;5034505;28;20163;-70
2021/06/03 02:08:22;;;;;;;11.45;5.80;;;;;;;;;;5033297;28;20053;-70
2021/06/03 02:10:49;;;;;;;10.55;6.30;;;;;;;;;;5033181;28;20099;-70
2021/06/03 02:13:19;;;;;;;10.98;5.55;;;;;;;;;;5034368;28;20025;-70
2021/06/03 02:15:50;;;;;;;14.77;6.10;;;;;;;;;;5033162;28;20036;-71
2021/06/03 02:18:17;;;;;;;12.75;5.75;;;;;;;;;;5032846;28;20030;-71
2021/06/03 02:20:47;;;;;;;10.35;6.22;;;;;;;;;;5033919;28;20083;-71
2021/06/03 02:23:14;;;;;;;10.40;6.65;;;;;;;;;;5032939;28;20032;-71
2021/06/03 02:25:40;;;;;;;12.15;6.20;;;;;;;;;;5036203;28;20041;-71
2021/06/03 02:28:07;;;;;;;15.55;6.32;;;;;;;;;;5054267;28;20064;-70
2021/06/03 02:30:34;;;;;;;11.75;5.93;;;;;;;;;;5036009;28;20068;-71
2021/06/03 02:33:00;;;;;;;8.98;5.78;;;;;;;;;;5053965;28;20029;-71
2021/06/03 02:35:27;;;;;;;11.45;5.75;;;;;;;;;;5053899;28;20447;-71
2021/06/03 02:37:53;;;;;;;13.75;5.63;;;;;;;;;;5053827;28;20071;-71
2021/06/03 02:40:21;;;;;;;14.13;5.88;;;;;;;;;;5053837;28;20112;-71
2021/06/03 02:42:48;;;;;;;10.93;6.63;;;;;;;;;;5053518;28;20112;-72
2021/06/03 02:45:15;;;;;;;17.48;6.50;;;;;;;;;;5053757;28;20025;-72
2021/06/03 02:47:42;;;;;;;11.45;6.25;;;;;;;;;;5035767;28;20106;-71
2021/06/03 02:50:10;;;;;;;14.65;6.53;;;;;;;;;;5035816;28;20465;-72
2021/06/03 02:52:36;;;;;;;16.33;6.70;;;;;;;;;;5053611;28;20059;-71
2021/06/03 02:55:04;;;;;;;14.75;6.15;;;;;;;;;;5053517;28;20025;-71
2021/06/03 02:57:30;;;;;;;10.40;6.72;;;;;;;;;;5035466;28;20021;-71
2021/06/03 02:59:57;;;;;;;13.98;6.88;;;;;;;;;;5035632;28;20032;-71
2021/06/03 03:02:23;;;;;;;11.32;6.15;;;;;;;;;;5035498;28;20468;-72
2021/06/03 03:07:53;;;;;;;9.75;6.22;;;;;;;;;;5053499;28;20192;-72
2021/06/03 03:10:21;;;;;;;13.75;6.70;;;;;;;;;;5035414;28;20031;-73
2021/06/03 03:12:47;;;;;;;20.42;6.95;;;;;;;;;;5035399;28;20082;-73
2021/06/03 03:15:15;;;;;;;21.65;7.47;;;;;;;;;;5053262;28;20017;-72
2021/06/03 03:17:41;;;;;;;14.73;6.57;;;;;;;;;;5035202;28;20465;-72
2021/06/03 03:20:10;;;;;;;16.55;6.57;;;;;;;;;;5053275;28;20083;-72
2021/06/03 03:22:37;;;;;;;12.18;6.95;;;;;;;;;;5035223;28;20021;-70
2021/06/03 03:25:04;;;;;;;13.38;6.57;;;;;;;;;;5052569;28;20049;-72
2021/06/03 03:27:30;;;;;;;13.45;5.47;;;;;;;;;;5053085;28;20104;-72
2021/06/03 03:29:57;;;;;;;16.70;6.93;;;;;;;;;;5053034;28;20112;-72
2021/06/03 03:32:23;;;;;;;18.52;6.95;;;;;;;;;;5053266;28;20107;-72
2021/06/03 03:34:49;;;;;;;14.75;6.82;;;;;;;;;;5035004;28;20033;-72
2021/06/03 03:37:15;;;;;;;17.50;7.18;;;;;;;;;;5034986;28;20048;-73
2021/06/03 03:39:41;;;;;;;14.15;7.30;;;;;;;;;;5052182;28;20111;-72
2021/06/03 03:42:08;;;;;;;9.25;6.13;;;;;;;;;;5052925;28;20380;-72
2021/06/03 03:44:34;;;;;;;16.58;7.82;;;;;;;;;;5052866;28;20040;-71
2021/06/03 03:47:01;;;;;;;19.17;7.68;;;;;;;;;;5052817;28;20029;-72
2021/06/03 03:49:27;;;;;;;13.15;6.18;;;;;;;;;;5035006;28;20462;-72
2021/06/03 03:51:53;;;;;;;16.50;6.68;;;;;;;;;;5034866;28;20112;-72
2021/06/03 03:54:19;;;;;;;13.20;7.20;;;;;;;;;;5052793;28;20029;-72
2021/06/03 03:56:46;;;;;;;18.70;8.50;;;;;;;;;;5052684;28;20103;-72
2021/06/03 03:59:12;;;;;;;17.73;7.38;;;;;;;;;;5052496;28;20037;-72
2021/06/03 04:01:38;;;;;;;13.40;6.60;;;;;;;;;;5052993;28;20113;-72
2021/06/03 04:04:05;;;;;;;11.27;7.03;;;;;;;;;;5052680;28;20032;-72
2021/06/03 04:06:31;;;;;;;18.80;7.18;;;;;;;;;;5034812;28;20761;-72
2021/06/03 04:08:58;;;;;;;11.75;7.13;;;;;;;;;;5052671;28;20025;-71
2021/06/03 04:11:25;;;;;;;13.55;6.65;;;;;;;;;;5034737;28;20393;-72
2021/06/03 04:13:51;;;;;;;19.70;7.57;;;;;;;;;;5034723;28;20021;-71
2021/06/03 04:16:18;;;;;;;10.38;6.35;;;;;;;;;;5052795;28;20029;-72
2021/06/03 04:18:44;;;;;;;10.48;6.78;;;;;;;;;;5034680;28;20370;-73
2021/06/03 04:21:10;;;;;;;12.13;7.75;;;;;;;;;;5052332;28;20029;-72
2021/06/03 04:23:37;;;;;;;11.63;6.25;;;;;;;;;;5034498;28;20367;-73
2021/06/03 04:26:03;;;;;;;13.88;7.63;;;;;;;;;;5052584;28;20021;-71
2021/06/03 04:28:30;;;;;;;12.13;7.25;;;;;;;;;;5034623;28;20415;-72
2021/06/03 04:30:56;;;;;;;11.25;7.47;;;;;;;;;;5052511;28;20024;-71
2021/06/03 04:33:22;;;;;;;17.58;7.85;;;;;;;;;;5052165;28;20052;-71
2021/06/03 04:35:50;;;;;;;19.75;8.05;;;;;;;;;;5052443;28;20033;-72
2021/06/03 04:38:16;;;;;;;12.20;7.68;;;;;;;;;;5052070;28;20033;-72
2021/06/03 04:40:43;;;;;;;14.77;7.82;;;;;;;;;;5052098;28;20447;-72
2021/06/03 04:43:09;;;;;;;12.88;6.88;;;;;;;;;;5034480;28;20469;-71
2021/06/03 04:45:36;;;;;;;12.07;6.78;;;;;;;;;;5034403;28;20025;-72
2021/06/03 04:48:04;;;;;;;13.15;7.57;;;;;;;;;;5052322;28;20115;-72
2021/06/03 04:50:30;;;;;;;15.60;7.90;;;;;;;;;;5052374;28;20083;-71
2021/06/03 04:52:57;;;;;;;14.70;8.70;;;;;;;;;;5037195;28;20435;-72
2021/06/03 04:55:23;;;;;;;12.35;8.10;;;;;;;;;;5055841;28;20087;-71
2021/06/03 04:57:50;;;;;;;12.43;7.90;;;;;;;;;;5055704;28;20090;-71
2021/06/03 05:00:22;;;;;;;9.55;7.53;;;;;;;;;;5055781;28;20167;-72
2021/06/03 05:02:48;;;;;;;16.58;7.30;;;;;;;;;;5055786;28;20032;-73
2021/06/03 05:05:15;;;;;;;12.60;7.95;;;;;;;;;;5055685;28;20097;-72
2021/06/03 05:07:42;;;;;;;16.00;7.80;;;;;;;;;;5037592;28;20032;-72
2021/06/03 05:10:09;;;;;;;11.13;7.95;;;;;;;;;;5055518;28;20017;-71
2021/06/03 05:12:35;;;;;;;10.98;7.93;;;;;;;;;;5037868;28;20386;-71
2021/06/03 05:15:02;;;;;;;9.85;7.75;;;;;;;;;;5037206;28;20078;-71
2021/06/03 05:17:28;;;;;;;11.60;6.93;;;;;;;;;;5055331;28;20414;-72
2021/06/03 05:19:54;;;;;;;11.10;7.60;;;;;;;;;;5055659;28;20111;-72
2021/06/03 05:22:20;;;;;;;9.85;7.10;;;;;;;;;;5055378;28;20021;-72
2021/06/03 05:24:46;;;;;;;10.93;7.55;;;;;;;;;;5055115;28;20053;-71
2021/06/03 05:27:13;;;;;;;8.70;7.32;;;;;;;;;;5055082;28;20436;-72
2021/06/03 05:29:39;;;;;;;11.68;7.90;;;;;;;;;;5037270;28;20021;-70
2021/06/03 05:32:06;;;;;;;11.52;7.47;;;;;;;;;;5054907;28;20096;-71
2021/06/03 05:34:32;;;;;;;13.75;8.23;;;;;;;;;;5054753;28;20040;-73
2021/06/03 05:36:58;;;;;;;12.20;8.15;;;;;;;;;;5036829;28;20025;-73
2021/06/03 05:39:24;;;;;;;18.35;9.90;;;;;;;;;;5054920;28;20033;-71
2021/06/03 05:41:51;;;;;;;13.20;8.45;;;;;;;;;;5054782;28;20100;-72
2021/06/03 05:44:17;;;;;;;16.50;9.68;;;;;;;;;;5055061;28;20078;-72
2021/06/03 05:46:44;;;;;;;18.83;8.73;;;;;;;;;;5054516;28;20461;-70
2021/06/03 05:49:11;;;;;;;12.75;8.27;;;;;;;;;;5054656;28;20025;-72
2021/06/03 05:51:38;;;;;;;14.38;6.80;;;;;;;;;;5036761;28;20579;-71
2021/06/03 05:54:05;;;;;;;15.00;7.47;;;;;;;;;;5054602;28;20477;-71
2021/06/03 05:56:31;;;;;;;10.80;6.88;;;;;;;;;;5054509;28;20021;-74
2021/06/03 05:58:58;;;;;;;10.85;6.72;;;;;;;;;;5054645;28;20029;-72
2021/06/03 06:01:25;;;;;;;16.88;7.43;;;;;;;;;;5054258;28;20187;-72
2021/06/03 06:06:30;;;;;;;9.75;5.85;;;;;;;;;;5054502;28;20033;-74
2021/06/03 06:09:00;;;;;;;8.48;6.70;;;;;;;;;;5036800;28;20031;-74
2021/06/03 06:11:30;;;;;;;11.33;6.93;;;;;;;;;;5055023;28;20127;-74
2021/06/03 06:13:57;;;;;;;20.35;6.70;;;;;;;;;;5053505;28;20075;-73
2021/06/03 06:16:23;;;;;;;11.18;5.38;;;;;;;;;;5035163;28;20071;-73
2021/06/03 06:18:50;;;;;;;8.48;4.90;;;;;;;;;;5035346;28;20497;-74
2021/06/03 06:21:18;;;;;;;8.15;4.60;;;;;;;;;;5053278;28;20044;-74
2021/06/03 06:23:46;;;;;;;8.68;4.90;;;;;;;;;;5052593;28;20134;-73
2021/06/03 06:26:12;;;;;;;6.00;4.80;;;;;;;;;;5050916;28;20025;-71
2021/06/03 06:28:39;;;;;;;5.82;4.07;;;;;;;;;;5035982;28;20108;-72
2021/06/03 06:31:07;;;;;;;5.85;4.63;;;;;;;;;;5036107;28;20032;-71
2021/06/03 06:33:34;;;;;;;10.15;4.78;;;;;;;;;;5053036;28;20402;-74
2021/06/03 06:36:01;;;;;;;11.07;4.80;;;;;;;;;;5053960;28;20491;-74
2021/06/03 06:38:27;;;;;;;9.05;4.07;;;;;;;;;;5053189;28;20024;-72
2021/06/03 06:40:55;;;;;;;6.75;4.20;;;;;;;;;;5053635;28;20033;-74
2021/06/03 06:43:21;;;;;;;10.82;3.97;;;;;;;;;;5053628;28;20110;-73
2021/06/03 06:45:48;;;;;;;7.25;4.20;;;;;;;;;;5035850;28;20037;-73
2021/06/03 06:48:17;;;;;;;6.82;4.38;;;;;;;;;;5053680;28;20047;-74
2021/06/03 06:50:45;;;;;;;5.13;3.83;;;;;;;;;;5053642;28;20021;-72
2021/06/03 06:53:11;;;;;;;5.13;3.42;;;;;;;;;;5034905;28;20025;-75
2021/06/03 06:55:38;;;;;;;14.55;4.00;;;;;;;;;;5033605;28;20111;-74
2021/06/03 06:58:04;;;;;;;9.20;4.15;;;;;;;;;;5032943;28;20068;-75
2021/06/03 07:00:32;;;;;;;7.75;4.00;;;;;;;;;;5034047;28;20029;-74
2021/06/03 07:02:58;;;;;;;9.25;3.83;;;;;;;;;;5033689;28;20075;-74
2021/06/03 07:05:25;;;;;;;7.95;4.13;;;;;;;;;;5034336;28;20021;-74
2021/06/03 07:07:52;;;;;;;8.27;2.97;;;;;;;;;;5034127;28;20021;-73
2021/06/03 07:10:18;;;;;;;9.25;3.88;;;;;;;;;;5033683;28;20028;-73
2021/06/03 07:12:44;;;;;;;5.03;3.42;;;;;;;;;;5034185;28;20025;-72
2021/06/03 07:15:12;;;;;;;6.15;3.08;;;;;;;;;;5051050;28;20017;-73
2021/06/03 07:17:39;;;;;;;4.38;3.10;;;;;;;;;;5051562;28;20029;-73
2021/06/03 07:20:15;;;;;;;6.13;3.20;;;;;;;;;;5034734;28;20033;-71
2021/06/03 07:22:45;;;;;;;4.70;2.83;;;19.90;92.10;;;;;;5052879;28;20029;-73
2021/06/03 07:25:13;;;;;;;3.72;2.65;;;20.00;91.50;;;;;;5035101;28;20430;-73
2021/06/03 07:27:40;;;;;;;5.00;2.53;;;20.10;91.20;;;;;;5034712;28;20025;-74
2021/06/03 07:30:09;;;;;;;5.38;2.60;;;20.10;88.40;;;;;;5051887;28;20024;-73
2021/06/03 07:32:35;;;;;;;2.65;2.45;;;20.30;88.50;;;;;;5034943;28;20116;-74
2021/06/03 07:35:01;;;;;;;4.88;2.30;;;20.40;84.50;;;;;;5052541;28;20025;-73
2021/06/03 07:37:28;;;;;;;3.67;2.40;;;20.30;84.80;;;;;;5034470;28;20028;-71
2021/06/03 07:39:55;;;;;;;3.88;2.47;;;20.40;84.60;;;;;;5052637;28;20457;-73
2021/06/03 07:42:21;;;;;;;5.03;2.63;;;20.50;84.50;;;;;;5052529;28;20028;-72
2021/06/03 07:44:47;;;;;;;5.28;2.15;;;20.60;83.70;;;;;;5034547;28;20025;-72
2021/06/03 07:47:14;;;;;;;5.53;2.35;;;20.70;83.10;;;;;;5052487;28;20033;-73
2021/06/03 07:49:40;;;;;;;2.85;2.20;;;20.80;85.80;;;;;;5052737;28;20086;-74
2021/06/03 07:52:07;;;;;;;5.85;2.45;;;20.90;85.40;;;;;;5034829;28;20033;-71
2021/06/03 07:54:34;;;;;;;2.25;2.15;;;21.10;82.80;;;;;;5034707;28;20025;-73
2021/06/03 07:57:00;;;;;;;2.33;2.10;;;21.20;84.40;;;;;;5034679;28;20127;-72
2021/06/03 07:59:27;;;;;;;4.38;2.20;;;21.30;82.50;;;;;;5052435;28;20041;-71
2021/06/03 08:01:53;;;;;;;8.10;2.10;;;21.30;80.40;;;;;;5052411;28;20115;-74
2021/06/03 08:04:20;;;;;;;2.95;1.95;;;21.40;80.60;;;;;;5052419;28;20489;-74
2021/06/03 08:06:47;;;;;;;3.45;1.92;;;21.60;81.90;;;;;;5052483;28;20036;-72
2021/06/03 08:09:14;;;;;;;5.25;2.15;;;21.70;77.10;;;;;;5052432;28;20064;-73
2021/06/03 08:11:41;;;;;;;2.42;1.70;;;21.80;77.90;;;;;;5034232;28;20032;-74
2021/06/03 08:14:08;;;;;;;2.90;2.25;;;21.90;77.00;;;;;;5052472;28;20035;-72
2021/06/03 08:16:33;;;;;;;3.92;2.47;;;22.00;77.70;;;;;;5034560;28;20033;-73
2021/06/03 08:18:59;;;;;;;3.65;2.30;;;22.20;75.90;;;;;;5034136;28;20099;-73
2021/06/03 08:21:25;;;;;;;5.55;1.63;;;22.30;77.10;;;;;;5052755;28;20029;-71
2021/06/03 08:23:51;;;;;;;3.53;2.05;;;22.50;78.00;;;;;;5034061;28;20049;-72
2021/06/03 08:26:17;;;;;;;4.05;2.00;;;22.60;75.10;;;;;;5054090;28;20519;-73
2021/06/03 08:28:43;;;;;;;3.38;2.28;;;22.70;73.20;;;;;;5038485;28;20795;-73
2021/06/03 08:31:10;;;;;;;3.88;2.05;;;22.70;73.70;;;;;;5038313;28;20035;-70
2021/06/03 08:33:36;;;;;;;2.45;2.05;;;22.80;73.50;;;;;;5038368;28;20029;-73
2021/06/03 08:36:02;;;;;;;2.75;1.80;;;22.80;73.20;;;;;;5057130;28;20021;-74
2021/06/03 08:38:28;;;;;;;20.60;3.33;;;23.00;72.00;;;;;;5038145;28;20447;-71
2021/06/03 08:40:57;;;;;;;9.02;2.47;;;23.00;75.10;;;;;;5038290;28;20068;-71
2021/06/03 08:43:30;;;;;;;3.83;2.13;;;23.10;74.00;;;;;;5055822;28;20449;-70
2021/06/03 08:45:58;;;;;;;3.10;2.13;;;23.20;72.40;;;;;;5055918;28;20028;-73
2021/06/03 08:48:24;;;;;;;5.85;2.28;;;23.00;68.90;;;;;;5038341;28;20432;-73
2021/06/03 08:50:54;;;;;;;3.00;1.67;;;23.10;69.00;;;;;;5056116;28;20074;-74
2021/06/03 08:53:20;;;;;;;2.42;2.20;;;;;;;;;;5037813;28;20029;-71
2021/06/03 08:58:32;;;;;;;9.20;2.90;;;;;;;;;;5055505;28;20075;-71
2021/06/03 09:00:59;;;;;;;5.15;2.45;;;;;;;;;;5055870;28;20101;-71
2021/06/03 09:03:27;;;;;;;2.00;1.80;;;;;;;;;;5055340;28;20377;-71
2021/06/03 09:05:53;;;;;;;4.53;2.30;;;;;;;;;;5055541;28;20021;-72
2021/06/03 09:08:20;;;;;;;7.60;2.70;;;;;;;;;;5055412;28;20483;-72
2021/06/03 09:10:48;;;;;;;8.23;2.33;;;;;;;;;;5055349;28;20370;-72
2021/06/03 09:13:16;;;;;;;2.88;2.50;;;;;;;;;;5055609;28;20465;-71
2021/06/03 09:15:50;;;;;;;6.70;2.28;;;;;;;;;;5055615;28;20065;-71
2021/06/03 09:18:18;;;;;;;4.72;1.98;;;;;;;;;;5055406;28;20056;-70
2021/06/03 09:20:46;;;;;;;2.95;1.88;;;;;;;;;;5036948;28;20488;-71
2021/06/03 09:23:24;;;;;;;2.45;2.25;;;;;;;;;;5037454;28;20063;-68
2021/06/03 09:25:50;;;;;;;2.50;2.13;;;;;;;;;;5055304;28;20033;-71
2021/06/03 09:28:26;;;;;;;5.07;2.78;;;23.70;66.30;;;;;;5054901;28;20100;-70
2021/06/03 09:31:00;;;;;;;13.07;3.10;;;23.70;67.00;;;;;;5037330;28;20036;-71
2021/06/03 09:33:50;;;;;;;4.78;2.38;;;23.50;66.50;;;;;;5054974;28;20032;-69
2021/06/03 09:36:33;;;;;;;4.63;2.05;;;24.20;66.50;;;;;;5055029;28;20036;-71
2021/06/03 09:39:28;;;;;;;3.72;2.40;;;24.30;65.00;;;;;;5054310;28;20087;-72
2021/06/03 09:42:06;;;;;;;5.00;1.98;;;24.70;63.10;;;;;;5033422;28;20489;-71
2021/06/03 09:44:37;;;;;;;3.63;1.67;;;25.00;61.50;;;;;;5054695;28;20040;-70
2021/06/03 09:47:12;;;;;;;5.68;2.17;;;24.70;64.00;;;;;;5054960;28;20471;-71
2021/06/03 09:49:42;;;;;;;4.55;2.42;;;24.90;65.50;;;;;;5036676;28;20043;-68
2021/06/03 09:52:09;;;;;;;144.10;15.70;;;25.40;62.50;;;;;;5036859;28;20025;-70
2021/06/03 09:54:36;;;;;;;7.50;3.63;;;26.00;62.00;;;;;;5032896;28;20048;-70
2021/06/03 09:57:06;;;;;;;6.43;2.15;;;25.80;62.90;;;;;;5053999;28;20349;-68
2021/06/03 09:59:40;;;;;;;5.05;2.08;;;25.60;62.30;;;;;;5054226;28;20124;-71
2021/06/03 10:02:09;;;;;;;3.78;1.88;;;25.30;62.00;;;;;;5054467;28;20049;-70
2021/06/03 10:04:38;;;;;;;2.85;2.35;;;25.10;61.50;;;;;;5054244;28;20071;-73
2021/06/03 10:07:06;;;;;;;4.50;2.90;;;;;;;;;;5053609;28;20029;-71
2021/06/03 10:09:45;;;;;;;6.03;2.33;;;;;;;;;;5053818;28;20025;-69
2021/06/03 10:12:15;;;;;;;33.30;5.07;;;;;;;;;;5054011;28;20483;-70
2021/06/03 10:14:42;;;;;;;2.05;1.85;;;;;;;;;;5052928;28;20064;-70
2021/06/03 10:17:17;;;;;;;1.80;1.70;;;;;;;;;;5036258;28;20094;-70
2021/06/03 10:19:43;;;;;;;2.50;1.90;;;;;;;;;;5036254;28;20477;-68
2021/06/03 10:22:11;;;;;;;2.13;1.90;;;;;;;;;;5054222;28;20029;-71
2021/06/03 10:24:50;;;;;;;5.13;1.90;;;;;;;;;;5053702;28;20045;-71
2021/06/03 10:27:17;;;;;;;2.63;1.92;;;;;;;;;;5054060;28;20056;-70
2021/06/03 10:29:43;;;;;;;3.35;1.80;;;;;;;;;;5036064;28;20441;-70
2021/06/03 10:32:10;;;;;;;1.88;1.77;;;;;;;;;;5053807;28;20039;-73
2021/06/03 10:34:37;;;;;;;4.15;1.77;;;;;;;;;;5034778;28;20110;-72
2021/06/03 10:37:04;;;;;;;3.35;2.00;;;;;;;;;;5035733;28;20029;-72
2021/06/03 10:39:32;;;;;;;4.40;1.88;;;;;;;;;;5053421;28;20496;-69
2021/06/03 10:41:58;;;;;;;2.80;1.98;;;;;;;;;;5035883;28;20116;-69
2021/06/03 10:44:25;;;;;;;3.72;1.30;;;;;;;;;;5053769;28;20078;-68
2021/06/03 10:46:51;;;;;;;1.98;1.45;;;26.00;56.50;;;;;;5050265;28;20533;-71
2021/06/03 10:49:18;;;;;;;3.20;2.05;;;25.90;58.20;;;;;;5035292;28;20120;-71
2021/06/03 10:51:44;;;;;;;2.42;1.85;;;25.70;57.10;;;;;;5053620;28;20108;-70
2021/06/03 10:54:09;;;;;;;5.75;1.90;;;25.60;55.70;;;;;;5053026;28;20037;-71
2021/06/03 10:56:35;;;;;;;3.05;2.00;;;25.60;58.20;;;;;;5052992;28;20109;-72
2021/06/03 10:59:03;;;;;;;2.05;1.80;;;25.90;57.70;;;;;;5053332;28;20033;-71
2021/06/03 11:01:32;;;;;;;2.10;1.80;;;25.90;56.30;;;;;;5053285;28;20032;-71
2021/06/03 11:04:04;;;;;;;3.25;1.67;;;25.90;57.40;;;;;;5053294;28;20369;-70
2021/06/03 11:06:41;;;;;;;6.25;2.30;;;25.80;58.60;;;;;;5035325;28;20381;-71
2021/06/03 11:09:08;;;;;;;3.45;1.73;;;25.80;56.30;;;;;;5034519;28;20031;-72
2021/06/03 11:11:47;;;;;;;1.80;1.70;;;25.90;58.30;;;;;;5035175;28;20025;-71
2021/06/03 11:14:14;;;;;;;4.75;1.80;;;26.20;58.40;;;;;;5052571;28;20558;-71
2021/06/03 11:16:40;;;;;;;5.82;2.05;;;26.30;59.30;;;;;;5034577;28;20436;-70
2021/06/03 11:19:09;;;;;;;7.38;2.17;;;26.30;57.60;;;;;;5053070;28;20033;-76
2021/06/03 11:21:38;;;;;;;3.40;2.35;;;26.10;60.40;;;;;;5052808;28;20029;-72
2021/06/03 11:24:05;;;;;;;1.98;1.83;;;26.00;57.20;;;;;;5032721;28;20140;-72
2021/06/03 11:26:48;;;;;;;4.85;2.30;;;25.90;58.40;;;;;;5053040;28;20500;-75
2021/06/03 11:29:54;;;;;;;5.30;1.85;;;26.00;57.90;;;;;;5052973;28;20497;-73
2021/06/03 11:32:22;;;;;;;2.95;1.83;;;;;;;;;;5035396;28;20405;-70
2021/06/03 11:34:53;;;;;;;4.43;1.90;;;;;;;;;;5052976;28;20056;-69
2021/06/03 11:37:19;;;;;;;3.53;1.90;;;;;;;;;;5052779;28;20028;-72
2021/06/03 11:39:51;;;;;;;6.25;2.17;;;;;;;;;;5052824;28;20017;-72
2021/06/03 11:42:32;;;;;;;3.70;2.13;;;;;;;;;;5035019;28;20060;-72
2021/06/03 11:45:11;;;;;;;2.40;2.20;;;;;;;;;;5052908;28;20028;-73
2021/06/03 11:47:37;;;;;;;2.45;1.80;;;;;;;;;;5034631;28;20025;-72
2021/06/03 11:50:08;;;;;;;2.28;1.90;;;;;;;;;;5052648;28;20036;-69
2021/06/03 11:52:34;;;;;;;2.30;1.80;;;;;;;;;;5053025;28;20048;-69
2021/06/03 11:55:01;;;;;;;2.28;1.35;;;;;;;;;;5034727;28;20039;-70
2021/06/03 11:57:32;;;;;;;2.72;1.73;;;;;;;;;;5052300;28;20112;-72
2021/06/03 11:59:59;;;;;;;3.03;2.00;;;;;;;;;;5052590;28;20098;-70
2021/06/03 12:02:36;;;;;;;2.00;1.90;;;;;;;;;;5056458;28;20033;-71
2021/06/03 12:05:11;;;;;;;5.15;1.95;;;;;;;;;;5056362;28;20028;-71
2021/06/03 12:07:42;;;;;;;4.47;2.00;;;;;;;;;;5038069;28;20377;-71
2021/06/03 12:10:09;;;;;;;2.78;1.70;;;;;;;;;;5056234;28;20025;-70
2021/06/03 12:12:36;;;;;;;3.85;1.45;;;;;;;;;;5038806;28;20468;-72
2021/06/03 12:15:03;;;;;;;4.18;1.92;;;;;;;;;;5038713;28;20059;-71
2021/06/03 12:17:29;;;;;;;2.85;1.95;;;;;;;;;;5056397;28;20022;-72
2021/06/03 12:19:56;;;;;;;5.78;1.50;;;;;;;;;;5056414;28;20037;-72
2021/06/03 12:22:25;;;;;;;2.90;1.90;;;;;;;;;;5056449;28;20029;-71
2021/06/03 12:24:53;;;;;;;2.92;1.98;;;;;;;;;;5055946;28;20037;-71
2021/06/03 12:27:21;;;;;;;2.63;1.73;;;;;;;;;;5056230;28;20036;-72
2021/06/03 12:29:47;;;;;;;3.63;1.65;;;;;;;;;;5056246;28;20108;-71
2021/06/03 12:32:14;;;;;;;3.97;1.90;;;;;;;;;;5056277;28;20040;-70
2021/06/03 12:34:40;;;;;;;3.22;1.83;;;;;;;;;;5056331;28;20021;-70
2021/06/03 12:37:21;;;;;;;3.13;1.88;;;;;;;;;;5056120;28;20036;-70
2021/06/03 12:39:47;;;;;;;7.18;2.05;;;27.30;51.30;;;;;;5056205;28;20029;-70
2021/06/03 12:42:18;;;;;;;5.70;2.58;;;26.90;50.40;;;;;;5056003;28;20438;-71
2021/06/03 12:44:52;;;;;;;;;;;26.60;51.60;;;;;;5056480;28;20032;-71
2021/06/03 12:47:18;;;;;;;2.70;1.80;;;;;;;;;;5038045;28;19955;-71
2021/06/03 12:49:44;;;;;;;2.78;1.90;;;;;;;;;;5056177;28;20470;-73
2021/06/03 12:52:11;;;;;;;4.88;2.13;;;;;;;;;;5056138;28;20036;-73
2021/06/03 12:54:41;;;;;;;7.15;1.80;;;;;;;;;;5037858;28;20025;-71
2021/06/03 12:57:09;;;;;;;2.17;1.90;;;;;;;;;;5056027;28;20032;-72
2021/06/03 12:59:36;;;;;;;6.90;2.67;;;;;;;;;;5055742;28;20057;-72
2021/06/03 13:02:05;;;;;;;2.25;1.75;;;;;;;;;;5055393;28;20412;-72
2021/06/03 13:04:33;;;;;;;4.60;2.15;;;;;;;;;;5055629;28;20025;-73
2021/06/03 13:06:59;;;;;;;5.88;2.35;;;;;;;;;;5053736;28;20047;-72
2021/06/03 13:09:26;;;;;;;2.28;1.83;;;;;;;;;;5037081;28;20017;-70
2021/06/03 13:11:52;;;;;;;3.40;1.80;;;;;;;;;;5054707;28;20022;-72
2021/06/03 13:14:23;;;;;;;5.70;1.80;;;;;;;;;;5036783;28;20584;-74
2021/06/03 13:16:53;;;;;;;2.33;1.70;;;;;;;;;;5055175;28;20029;-72
2021/06/03 13:19:23;;;;;;;2.58;2.30;;;;;;;;;;5055434;28;20033;-71
2021/06/03 13:21:54;;;;;;;4.07;1.75;;;;;;;;;;5055310;28;20025;-72
2021/06/03 13:24:21;;;;;;;3.25;2.00;;;;;;;;;;5055001;28;20045;-70
2021/06/03 13:26:47;;;;;;;3.83;1.70;;;;;;;;;;5055196;28;20036;-70
2021/06/03 13:29:14;;;;;;;2.92;1.63;;;;;;;;;;5037284;28;20116;-72
2021/06/03 13:31:42;;;;;;;6.60;2.08;;;;;;;;;;5054809;28;20140;-74
2021/06/03 13:34:26;;;;;;;1.60;1.50;;;;;;;;;;5055134;28;20021;-72
2021/06/03 13:36:58;;;;;;;3.63;2.00;;;;;;;;;;5055131;28;20373;-72
2021/06/03 13:39:29;;;;;;;3.08;1.67;;;;;;;;;;5055263;28;20175;-72
2021/06/03 13:41:56;;;;;;;1.95;1.85;;;;;;;;;;5054616;28;20063;-71
2021/06/03 13:44:23;;;;;;;2.55;1.70;;;;;;;;;;5036974;28;20020;-70
2021/06/03 13:46:49;;;;;;;1.73;1.63;;;;;;;;;;5036789;28;20025;-73
2021/06/03 13:49:26;;;;;;;3.72;1.80;;;;;;;;;;5036939;28;20051;-71
2021/06/03 13:52:03;;;;;;;2.10;1.60;;;;;;;;;;5036965;28;20926;-71
2021/06/03 13:54:29;;;;;;;2.03;1.90;;;;;;;;;;5036870;28;20358;-71
2021/06/03 13:56:55;;;;;;;1.42;1.33;;;;;;;;;;5036441;28;20530;-71
2021/06/03 13:59:21;;;;;;;2.42;1.48;;;;;;;;;;5054065;28;20020;-71
2021/06/03 14:01:49;;;;;;;2.17;1.98;;;;;;;;;;5054124;28;20108;-75
2021/06/03 14:04:19;;;;;;;2.17;1.70;;;;;;;;;;5034165;28;20102;-71
2021/06/03 14:06:53;;;;;;;3.15;2.00;;;;;;;;;;5033909;28;20053;-72
2021/06/03 14:09:20;;;;;;;2.30;1.67;;;;;;;;;;5034430;28;20103;-71
2021/06/03 14:12:03;;;;;;;1.80;1.67;;;;;;;;;;5034338;28;20493;-72
2021/06/03 14:14:33;;;;;;;6.50;1.55;;;;;;;;;;5034334;28;20033;-72
2021/06/03 14:17:18;;;;;;;3.03;1.50;;;;;;;;;;5034151;28;20029;-72
2021/06/03 14:19:49;;;;;;;3.17;1.20;;;;;;;;;;5016540;28;20087;-71
2021/06/03 14:22:27;;;;;;;2.45;1.60;;;;;;;;;;5034292;28;20029;-71
2021/06/03 14:24:56;;;;;;;2.67;1.90;;;;;;;;;;5015864;28;20410;-71